Winkler, Texas
Current Conditions -  °F | °C
As of 1:53 PM on Sunday 23 Nov 2014 (Local Time) from KCRS Reporting Station
Clear Clear  
Wind Chill: 76°   Ceiling: Unl
Heat Index: 76°   Visibility: 10mi
Dew Point: 45°   Wind: 23mph
Humidity: 33%   Direction: 230°SW
Pressure: 29.43"   Gusts: 31mph
Location:  31.9013°N, 96.2795°W
Report Text: KCRS 231953Z AUTO 23020G27KT 10SM CLR 24/07 A2943 RMK AO2 PK WND 23028/1935 SLP962 T02440072
Loading
Personal Weather Stations






























Interactive Weather Map New forecast layout! Learn more

10-Day Weather Forecast

Advertisements
Track Severe Weather on mobile